createdAt,value
2018-11-02T00:01:28.837Z,8.60
2018-11-02T00:03:57.615Z,8.70
2018-11-02T00:06:26.415Z,8.70
2018-11-02T00:08:55.229Z,8.80
2018-11-02T00:11:24.005Z,8.80
2018-11-02T00:13:53.047Z,8.70
2018-11-02T00:16:22.361Z,8.60
2018-11-02T00:18:51.115Z,8.50
2018-11-02T00:21:19.765Z,8.50
2018-11-02T00:23:48.321Z,8.50
2018-11-02T00:26:16.899Z,8.50
2018-11-02T00:28:45.434Z,8.50
2018-11-02T00:31:14.046Z,8.50
2018-11-02T00:33:42.646Z,8.60
2018-11-02T00:36:11.186Z,8.50
2018-11-02T00:38:39.843Z,8.50
2018-11-02T00:41:08.428Z,8.50
2018-11-02T00:43:37.015Z,8.60
2018-11-02T00:46:06.224Z,8.60
2018-11-02T00:48:34.834Z,8.70
2018-11-02T00:51:03.350Z,8.70
2018-11-02T00:53:31.956Z,8.70
2018-11-02T00:56:00.504Z,8.70
2018-11-02T00:58:29.051Z,8.80
2018-11-02T01:00:57.794Z,8.80
2018-11-02T01:03:26.455Z,8.80
2018-11-02T01:05:55.123Z,8.90
2018-11-02T01:08:23.644Z,8.80
2018-11-02T01:10:52.675Z,8.80
2018-11-02T01:13:21.593Z,8.80
2018-11-02T01:15:50.211Z,8.80
2018-11-02T01:18:18.804Z,8.80
2018-11-02T01:20:47.374Z,8.90
2018-11-02T01:23:16.011Z,8.90
2018-11-02T01:25:44.670Z,8.90
2018-11-02T01:28:13.451Z,8.90
2018-11-02T01:30:41.978Z,8.90
2018-11-02T01:33:10.523Z,8.90
2018-11-02T01:35:39.094Z,8.90
2018-11-02T01:38:08.182Z,8.90
2018-11-02T01:40:36.984Z,8.90
2018-11-02T01:43:06.357Z,8.80
2018-11-02T01:45:34.946Z,8.90
2018-11-02T01:48:03.611Z,8.90
2018-11-02T01:50:32.147Z,8.90
2018-11-02T01:53:00.653Z,8.90
2018-11-02T01:55:29.288Z,8.90
2018-11-02T01:57:57.736Z,8.90
2018-11-02T02:00:26.193Z,8.90
2018-11-02T02:02:54.733Z,9.00
2018-11-02T02:05:23.304Z,9.00
2018-11-02T02:07:51.874Z,9.00
2018-11-02T02:10:20.455Z,9.00
2018-11-02T02:12:49.029Z,9.10
2018-11-02T02:15:17.590Z,9.10
2018-11-02T02:17:46.115Z,9.00
2018-11-02T02:20:14.718Z,9.00
2018-11-02T02:22:43.213Z,9.00
2018-11-02T02:25:11.777Z,9.00
2018-11-02T02:27:40.293Z,9.00
2018-11-02T02:30:12.239Z,9.10
2018-11-02T02:32:40.750Z,9.00
2018-11-02T02:35:10.127Z,9.00
2018-11-02T02:37:39.602Z,9.00
2018-11-02T02:40:09.858Z,9.00
2018-11-02T02:42:38.574Z,9.00
2018-11-02T02:45:07.655Z,9.00
2018-11-02T02:47:36.206Z,9.00
2018-11-02T02:50:06.325Z,9.00
2018-11-02T02:52:34.799Z,9.00
2018-11-02T02:55:03.364Z,9.10
2018-11-02T02:57:31.841Z,9.10
2018-11-02T03:00:00.337Z,9.10
2018-11-02T03:02:28.827Z,9.00
2018-11-02T03:04:57.317Z,9.00
2018-11-02T03:07:25.829Z,8.80
2018-11-02T03:09:54.365Z,8.70
2018-11-02T03:12:22.933Z,8.60
2018-11-02T03:14:51.512Z,8.60
2018-11-02T03:17:19.977Z,8.60
2018-11-02T03:19:48.519Z,8.50
2018-11-02T03:22:17.075Z,8.40
2018-11-02T03:24:45.601Z,8.30
2018-11-02T03:27:14.114Z,8.20
2018-11-02T03:29:42.624Z,8.20
2018-11-02T03:32:11.251Z,8.10
2018-11-02T03:34:39.734Z,8.10
2018-11-02T03:37:08.231Z,8.00
2018-11-02T03:39:36.717Z,8.00
2018-11-02T03:42:06.132Z,8.00
2018-11-02T03:44:34.678Z,8.00
2018-11-02T03:47:03.269Z,7.90
2018-11-02T03:49:31.830Z,7.90
2018-11-02T03:52:00.293Z,7.90
2018-11-02T03:54:28.849Z,7.70
2018-11-02T03:56:57.851Z,7.70
2018-11-02T03:59:26.083Z,7.70
2018-11-02T04:01:54.632Z,7.70
2018-11-02T04:04:23.115Z,7.60
2018-11-02T04:06:51.625Z,7.60
2018-11-02T04:09:20.175Z,7.50
2018-11-02T04:11:49.114Z,7.40
2018-11-02T04:14:17.648Z,7.40
2018-11-02T04:16:46.226Z,7.40
2018-11-02T04:19:14.823Z,7.40
2018-11-02T04:21:47.523Z,7.50
2018-11-02T04:24:16.041Z,7.60
2018-11-02T04:26:44.584Z,7.60
2018-11-02T04:29:14.047Z,7.70
2018-11-02T04:31:43.385Z,7.70
2018-11-02T04:34:12.402Z,7.70
2018-11-02T04:36:40.846Z,7.70
2018-11-02T04:39:11.663Z,7.70
2018-11-02T04:41:40.234Z,7.80
2018-11-02T04:44:09.767Z,7.90
2018-11-02T04:46:38.664Z,7.90
2018-11-02T04:49:08.521Z,8.00
2018-11-02T04:51:37.172Z,8.00
2018-11-02T04:54:05.936Z,8.00
2018-11-02T04:56:34.476Z,8.10
2018-11-02T04:59:02.971Z,8.10
2018-11-02T05:01:31.481Z,8.00
2018-11-02T05:03:59.971Z,8.10
2018-11-02T05:06:28.945Z,8.10
2018-11-02T05:08:57.410Z,8.10
2018-11-02T05:11:26.897Z,8.10
2018-11-02T05:13:55.377Z,8.10
2018-11-02T05:16:23.902Z,8.10
2018-11-02T05:18:52.431Z,8.10
2018-11-02T05:21:20.936Z,8.10
2018-11-02T05:23:49.348Z,8.10
2018-11-02T05:26:17.853Z,8.20
2018-11-02T05:28:46.342Z,8.10
2018-11-02T05:31:15.048Z,8.10
2018-11-02T05:33:43.676Z,8.10
2018-11-02T05:36:12.134Z,8.10
2018-11-02T05:38:40.553Z,8.00
2018-11-02T05:41:09.086Z,7.90
2018-11-02T05:43:37.569Z,7.80
2018-11-02T05:46:06.187Z,7.70
2018-11-02T05:48:34.775Z,7.70
2018-11-02T05:51:03.326Z,7.80
2018-11-02T05:53:31.813Z,7.80
2018-11-02T05:56:00.271Z,7.90
2018-11-02T05:58:28.733Z,7.80
2018-11-02T06:00:57.201Z,7.80
2018-11-02T06:03:26.123Z,7.70
2018-11-02T06:05:54.640Z,7.60
2018-11-02T06:08:23.242Z,7.50
2018-11-02T06:10:51.686Z,7.50
2018-11-02T06:13:20.450Z,7.50
2018-11-02T06:15:48.906Z,7.50
2018-11-02T06:18:17.657Z,7.40
2018-11-02T06:20:46.172Z,7.40
2018-11-02T06:23:14.885Z,7.40
2018-11-02T06:25:43.469Z,7.50
2018-11-02T06:28:12.010Z,7.50
2018-11-02T06:30:40.610Z,7.50
2018-11-02T06:33:09.074Z,7.60
2018-11-02T06:35:37.805Z,7.70
2018-11-02T06:38:06.394Z,7.70
2018-11-02T06:40:34.978Z,7.70
2018-11-02T06:43:03.513Z,7.70
2018-11-02T06:45:32.027Z,7.80
2018-11-02T06:48:00.595Z,7.80
2018-11-02T06:50:29.164Z,7.90
2018-11-02T06:52:57.761Z,7.90
2018-11-02T06:55:26.293Z,7.90
2018-11-02T06:57:55.111Z,7.80
2018-11-02T07:00:23.742Z,7.80
2018-11-02T07:02:52.235Z,7.80
2018-11-02T07:05:21.161Z,7.80
2018-11-02T07:07:49.808Z,7.80
2018-11-02T07:10:18.253Z,7.80
2018-11-02T07:12:46.842Z,7.90
2018-11-02T07:15:15.320Z,7.90
2018-11-02T07:17:43.831Z,8.00
2018-11-02T07:20:12.335Z,8.00
2018-11-02T07:22:40.757Z,8.00
2018-11-02T07:25:09.400Z,8.00
2018-11-02T07:27:37.881Z,8.10
2018-11-02T07:30:08.042Z,8.20
2018-11-02T07:32:36.575Z,8.30
2018-11-02T07:35:05.941Z,8.30
2018-11-02T07:37:34.485Z,8.30
2018-11-02T07:40:03.324Z,8.40
2018-11-02T07:42:31.867Z,8.50
2018-11-02T07:45:00.488Z,8.60
2018-11-02T07:47:29.219Z,8.70
2018-11-02T07:49:57.736Z,8.70
2018-11-02T07:52:26.339Z,8.80
2018-11-02T07:54:54.901Z,8.70
2018-11-02T07:57:23.421Z,8.80
2018-11-02T07:59:52.045Z,8.90
2018-11-02T08:02:20.563Z,8.90
2018-11-02T08:04:49.183Z,9.00
2018-11-02T08:07:17.766Z,9.10
2018-11-02T08:09:46.346Z,9.20
2018-11-02T08:12:14.939Z,9.40
2018-11-02T08:14:43.672Z,9.50
2018-11-02T08:17:12.293Z,9.50
2018-11-02T08:19:40.932Z,9.60
2018-11-02T08:22:09.435Z,9.60
2018-11-02T08:24:37.942Z,9.60
2018-11-02T08:27:07.004Z,9.60
2018-11-02T08:29:35.666Z,9.60
2018-11-02T08:32:04.201Z,9.70
2018-11-02T08:34:33.410Z,9.70
2018-11-02T08:37:02.155Z,9.80
2018-11-02T08:39:30.717Z,9.80
2018-11-02T08:41:59.450Z,9.80
2018-11-02T08:44:27.950Z,9.70
2018-11-02T08:46:56.466Z,9.80
2018-11-02T08:49:24.952Z,9.80
2018-11-02T08:51:53.566Z,9.80
2018-11-02T08:54:22.111Z,9.90
2018-11-02T08:56:50.640Z,10.10
2018-11-02T08:59:19.261Z,10.20
2018-11-02T09:01:47.985Z,10.20
2018-11-02T09:04:16.463Z,10.30
2018-11-02T09:06:45.013Z,10.40
2018-11-02T09:09:13.787Z,10.50
2018-11-02T09:11:42.351Z,10.60
2018-11-02T09:14:10.945Z,10.70
2018-11-02T09:16:39.630Z,10.80
2018-11-02T09:19:08.502Z,10.80
2018-11-02T09:21:37.456Z,10.90
2018-11-02T09:24:06.587Z,10.90
2018-11-02T09:26:35.099Z,10.80
2018-11-02T09:29:05.669Z,10.80
2018-11-02T09:31:34.206Z,10.80
2018-11-02T09:34:02.746Z,10.90
2018-11-02T09:36:32.381Z,11.00
2018-11-02T09:39:02.315Z,11.00
2018-11-02T09:41:30.919Z,11.00
2018-11-02T09:44:01.522Z,11.00
2018-11-02T09:46:30.062Z,11.20
2018-11-02T09:48:58.600Z,11.30
2018-11-02T09:51:28.579Z,11.40
2018-11-02T09:53:57.178Z,11.50
2018-11-02T09:56:25.707Z,11.50
2018-11-02T09:58:54.213Z,11.70
2018-11-02T10:01:22.771Z,11.90
2018-11-02T10:03:51.369Z,12.60
2018-11-02T10:06:19.848Z,13.30
2018-11-02T10:08:48.489Z,13.50
2018-11-02T10:11:17.041Z,13.50
2018-11-02T10:13:45.671Z,13.40
2018-11-02T10:16:14.281Z,12.90
2018-11-02T10:18:42.877Z,12.60
2018-11-02T10:21:11.418Z,12.30
2018-11-02T10:23:39.967Z,12.10
2018-11-02T10:26:08.681Z,12.00
2018-11-02T10:28:37.326Z,12.00
2018-11-02T10:31:06.273Z,11.90
2018-11-02T10:33:34.829Z,11.90
2018-11-02T10:36:04.212Z,12.00
2018-11-02T10:38:32.762Z,12.20
2018-11-02T10:41:01.348Z,12.40
2018-11-02T10:43:31.106Z,12.60
2018-11-02T10:46:01.020Z,12.70
2018-11-02T10:48:30.238Z,12.80
2018-11-02T10:50:58.991Z,13.00
2018-11-02T10:53:27.469Z,13.10
2018-11-02T10:55:55.973Z,13.10
2018-11-02T10:58:24.516Z,13.10
2018-11-02T11:00:58.426Z,13.20
2018-11-02T11:03:26.821Z,13.20
2018-11-02T11:05:55.415Z,13.30
2018-11-02T11:08:23.990Z,13.50
2018-11-02T11:10:52.738Z,13.60
2018-11-02T11:13:21.841Z,13.60
2018-11-02T11:15:50.315Z,13.50
2018-11-02T11:18:18.806Z,13.40
2018-11-02T11:20:47.397Z,13.40
2018-11-02T11:23:16.033Z,13.40
2018-11-02T11:25:44.701Z,13.40
2018-11-02T11:28:13.186Z,13.50
2018-11-02T11:30:42.185Z,13.70
2018-11-02T11:33:10.726Z,13.80
2018-11-02T11:35:39.237Z,14.10
2018-11-02T11:38:07.892Z,14.20
2018-11-02T11:40:36.462Z,14.40
2018-11-02T11:43:05.304Z,14.40
2018-11-02T11:45:33.861Z,14.50
2018-11-02T11:48:02.335Z,14.30
2018-11-02T11:50:30.974Z,14.20
2018-11-02T11:52:59.441Z,14.00
2018-11-02T11:55:27.999Z,13.90
2018-11-02T11:57:56.691Z,13.80
2018-11-02T12:00:25.238Z,13.70
2018-11-02T12:02:53.942Z,13.60
2018-11-02T12:05:23.526Z,13.60
2018-11-02T12:07:52.138Z,13.60
2018-11-02T12:10:22.953Z,13.50
2018-11-02T12:12:51.733Z,13.40
2018-11-02T12:15:21.521Z,13.40
2018-11-02T12:17:50.799Z,13.40
2018-11-02T12:20:23.804Z,13.30
2018-11-02T12:22:53.733Z,13.30
2018-11-02T12:25:22.321Z,13.20
2018-11-02T12:27:50.958Z,13.10
2018-11-02T12:30:19.769Z,13.00
2018-11-02T12:32:48.401Z,13.00
2018-11-02T12:35:17.876Z,12.90
2018-11-02T12:37:46.360Z,12.90
2018-11-02T12:40:20.785Z,12.90
2018-11-02T12:42:50.311Z,12.90
2018-11-02T12:45:19.846Z,12.90
2018-11-02T12:47:48.804Z,13.00
2018-11-02T12:50:20.018Z,12.90
2018-11-02T12:52:49.419Z,12.90
2018-11-02T12:55:18.436Z,13.00
2018-11-02T12:57:46.985Z,13.00
2018-11-02T13:00:18.057Z,13.10
2018-11-02T13:02:47.154Z,13.10
2018-11-02T13:05:15.923Z,13.20
2018-11-02T13:07:44.469Z,13.20
2018-11-02T13:10:14.589Z,13.30
2018-11-02T13:12:43.445Z,13.40
2018-11-02T13:15:13.565Z,13.40
2018-11-02T13:17:43.011Z,13.40
2018-11-02T13:20:12.276Z,13.40
2018-11-02T13:22:41.509Z,13.40
2018-11-02T13:25:15.204Z,13.40
2018-11-02T13:27:44.227Z,13.30
2018-11-02T13:30:12.817Z,13.40
2018-11-02T13:32:41.253Z,13.50
2018-11-02T13:35:12.229Z,13.50
2018-11-02T13:37:41.545Z,13.50
2018-11-02T13:40:11.406Z,13.50
2018-11-02T13:42:40.476Z,13.50
2018-11-02T13:45:10.754Z,13.60
2018-11-02T13:47:39.632Z,13.60
2018-11-02T13:50:08.534Z,13.70
2018-11-02T13:52:37.008Z,13.70
2018-11-02T13:55:06.755Z,13.60
2018-11-02T13:57:35.217Z,13.50
2018-11-02T14:00:04.050Z,13.30
2018-11-02T14:02:32.525Z,13.20
2018-11-02T14:05:01.159Z,13.20
2018-11-02T14:07:29.686Z,13.10
2018-11-02T14:09:58.230Z,13.20
2018-11-02T14:12:26.769Z,13.20
2018-11-02T14:14:55.243Z,13.10
2018-11-02T14:17:23.804Z,13.10
2018-11-02T14:19:52.297Z,13.10
2018-11-02T14:22:21.054Z,13.10
2018-11-02T14:24:54.023Z,13.10
2018-11-02T14:27:22.875Z,13.10
2018-11-02T14:29:51.474Z,13.10
2018-11-02T14:32:19.995Z,13.20
2018-11-02T14:34:48.558Z,13.10
2018-11-02T14:37:17.145Z,13.10
2018-11-02T14:39:45.650Z,13.10
2018-11-02T14:42:14.352Z,13.20
2018-11-02T14:44:42.839Z,13.20
2018-11-02T14:47:11.378Z,13.10
2018-11-02T14:49:39.934Z,13.20
2018-11-02T14:52:08.550Z,13.20
2018-11-02T14:54:37.138Z,13.20
2018-11-02T14:57:06.166Z,13.10
2018-11-02T14:59:34.781Z,13.10
2018-11-02T15:02:03.292Z,13.10
2018-11-02T15:04:31.866Z,13.10
2018-11-02T15:07:00.486Z,13.00
2018-11-02T15:09:29.060Z,13.00
2018-11-02T15:11:57.635Z,13.00
2018-11-02T15:14:26.111Z,13.00
2018-11-02T15:16:54.655Z,12.90
2018-11-02T15:19:23.224Z,12.90
2018-11-02T15:21:51.991Z,12.90
2018-11-02T15:24:20.558Z,12.90
2018-11-02T15:26:49.064Z,12.90
2018-11-02T15:29:17.613Z,12.90
2018-11-02T15:31:46.090Z,12.80
2018-11-02T15:34:14.655Z,12.70
2018-11-02T15:36:43.213Z,12.70
2018-11-02T15:39:12.994Z,12.70
2018-11-02T15:41:54.132Z,12.70
2018-11-02T15:44:23.013Z,12.60
2018-11-02T15:46:51.458Z,12.60
2018-11-02T15:49:31.672Z,12.60
2018-11-02T15:52:00.321Z,12.50
2018-11-02T15:54:33.006Z,12.40
2018-11-02T16:00:02.247Z,12.20
2018-11-02T16:02:30.905Z,12.10
2018-11-02T16:04:59.608Z,12.00
2018-11-02T16:07:28.283Z,11.90
2018-11-02T16:09:56.793Z,11.80
2018-11-02T16:12:25.910Z,11.70
2018-11-02T16:15:06.683Z,11.70
2018-11-02T16:17:35.821Z,11.70
2018-11-02T16:20:04.666Z,11.60
2018-11-02T16:26:49.913Z,11.50
2018-11-02T16:29:18.486Z,11.40
2018-11-02T16:32:14.693Z,11.40
2018-11-02T16:34:43.454Z,11.40
2018-11-02T16:37:19.929Z,11.30
2018-11-02T16:39:49.743Z,11.20
2018-11-02T16:42:18.342Z,11.20
2018-11-02T16:44:46.996Z,11.20
2018-11-02T16:47:15.494Z,11.20
2018-11-02T16:49:44.190Z,11.20
2018-11-02T16:52:12.735Z,11.20
2018-11-02T16:54:41.476Z,11.10
2018-11-02T16:57:09.987Z,11.10
2018-11-02T16:59:38.599Z,11.10
2018-11-02T17:02:07.214Z,11.10
2018-11-02T17:04:36.111Z,11.00
2018-11-02T17:07:04.663Z,11.00
2018-11-02T17:09:33.257Z,11.00
2018-11-02T17:12:01.991Z,11.00
2018-11-02T17:14:30.806Z,11.00
2018-11-02T17:16:59.419Z,10.90
2018-11-02T17:19:27.923Z,10.90
2018-11-02T17:21:56.514Z,10.90
2018-11-02T17:24:25.103Z,10.90
2018-11-02T17:26:53.947Z,10.90
2018-11-02T17:29:22.503Z,10.90
2018-11-02T17:31:51.024Z,10.90
2018-11-02T17:34:19.646Z,10.80
2018-11-02T17:36:48.170Z,10.80
2018-11-02T17:39:16.865Z,10.80
2018-11-02T17:41:45.671Z,10.90
2018-11-02T17:44:14.236Z,10.80
2018-11-02T17:46:47.024Z,10.90
2018-11-02T17:49:15.720Z,10.90
2018-11-02T17:51:44.251Z,10.80
2018-11-02T17:54:12.975Z,10.80
2018-11-02T17:56:41.530Z,10.80
2018-11-02T17:59:10.394Z,10.80
2018-11-02T18:01:38.899Z,10.80
2018-11-02T18:04:07.548Z,10.70
2018-11-02T18:06:36.157Z,10.70
2018-11-02T18:09:06.902Z,10.70
2018-11-02T18:11:35.642Z,10.70
2018-11-02T18:14:04.312Z,10.70
2018-11-02T18:16:33.492Z,10.70
2018-11-02T18:19:02.228Z,10.70
2018-11-02T18:21:30.879Z,10.70
2018-11-02T18:23:59.555Z,10.70
2018-11-02T18:26:28.335Z,10.60
2018-11-02T18:28:57.438Z,10.60
2018-11-02T18:31:26.063Z,10.60
2018-11-02T18:33:54.661Z,10.60
2018-11-02T18:36:23.234Z,10.60
2018-11-02T18:38:51.903Z,10.60
2018-11-02T18:41:20.488Z,10.60
2018-11-02T18:43:49.141Z,10.60
2018-11-02T18:46:17.859Z,10.50
2018-11-02T18:48:46.476Z,10.50
2018-11-02T18:51:15.105Z,10.50
2018-11-02T18:53:43.790Z,10.50
2018-11-02T18:56:12.392Z,10.50
2018-11-02T18:58:41.066Z,10.40
2018-11-02T19:01:09.848Z,10.40
2018-11-02T19:03:38.455Z,10.40
2018-11-02T19:06:07.100Z,10.50
2018-11-02T19:08:35.778Z,10.50
2018-11-02T19:11:04.440Z,10.40
2018-11-02T19:13:33.216Z,10.40
2018-11-02T19:16:01.694Z,10.30
2018-11-02T19:18:30.251Z,10.20
2018-11-02T19:20:58.819Z,10.10
2018-11-02T19:23:27.497Z,10.00
2018-11-02T19:25:56.149Z,10.00
2018-11-02T19:28:24.740Z,9.90
2018-11-02T19:30:53.388Z,9.90
2018-11-02T19:33:22.012Z,9.90
2018-11-02T19:35:50.659Z,9.90
2018-11-02T19:38:19.239Z,9.90
2018-11-02T19:40:48.003Z,9.90
2018-11-02T19:43:16.543Z,9.80
2018-11-02T19:45:45.203Z,9.80
2018-11-02T19:48:13.821Z,9.70
2018-11-02T19:50:42.502Z,9.80
2018-11-02T19:53:11.071Z,9.70
2018-11-02T19:55:39.797Z,9.80
2018-11-02T19:58:08.490Z,9.80
2018-11-02T20:00:37.091Z,9.80
2018-11-02T20:03:05.727Z,9.80
2018-11-02T20:05:34.348Z,9.80
2018-11-02T20:08:02.922Z,9.80
2018-11-02T20:10:31.490Z,9.90
2018-11-02T20:13:00.248Z,9.90
2018-11-02T20:15:28.782Z,9.90
2018-11-02T20:17:57.373Z,9.90
2018-11-02T20:20:25.966Z,10.00
2018-11-02T20:22:54.509Z,10.00
2018-11-02T20:25:23.097Z,10.00
2018-11-02T20:27:51.612Z,10.00
2018-11-02T20:30:22.741Z,10.10
2018-11-02T20:32:51.586Z,10.10
2018-11-02T20:35:20.210Z,10.10
2018-11-02T20:37:48.897Z,10.10
2018-11-02T20:40:18.821Z,10.10
2018-11-02T20:42:47.543Z,10.10
2018-11-02T20:45:16.602Z,10.10
2018-11-02T20:47:47.758Z,10.10
2018-11-02T20:50:16.389Z,10.10
2018-11-02T20:52:44.907Z,10.10
2018-11-02T20:55:14.357Z,10.10
2018-11-02T20:57:43.552Z,10.10
2018-11-02T21:00:14.881Z,10.10
2018-11-02T21:02:44.180Z,10.10
2018-11-02T21:05:13.859Z,10.20
2018-11-02T21:07:43.391Z,10.20
2018-11-02T21:10:13.181Z,10.20
2018-11-02T21:12:41.838Z,10.30
2018-11-02T21:15:15.812Z,10.30
2018-11-02T21:17:44.390Z,10.30
2018-11-02T21:20:14.547Z,10.30
2018-11-02T21:22:43.572Z,10.30
2018-11-02T21:25:12.784Z,10.30
2018-11-02T21:27:42.273Z,10.30
2018-11-02T21:30:14.612Z,10.30
2018-11-02T21:32:43.944Z,10.30
2018-11-02T21:35:12.701Z,10.30
2018-11-02T21:37:41.464Z,10.30
2018-11-02T21:40:12.489Z,10.40
2018-11-02T21:42:41.517Z,10.40
2018-11-02T21:45:10.654Z,10.40
2018-11-02T21:47:39.546Z,10.40
2018-11-02T21:50:09.402Z,10.40
2018-11-02T21:52:38.030Z,10.40
2018-11-02T21:55:06.894Z,10.40
2018-11-02T21:57:35.575Z,10.40
2018-11-02T22:00:04.765Z,10.50
2018-11-02T22:02:33.343Z,10.50
2018-11-02T22:05:02.095Z,10.50
2018-11-02T22:07:30.781Z,10.40
2018-11-02T22:09:59.460Z,10.40
2018-11-02T22:12:28.186Z,10.40
2018-11-02T22:14:56.813Z,10.40
2018-11-02T22:17:25.442Z,10.40
2018-11-02T22:19:54.039Z,10.40
2018-11-02T22:22:22.590Z,10.40
2018-11-02T22:24:51.329Z,10.30
2018-11-02T22:27:19.970Z,10.20
2018-11-02T22:29:48.506Z,10.20
2018-11-02T22:32:17.449Z,10.10
2018-11-02T22:34:46.217Z,10.10
2018-11-02T22:37:14.904Z,10.10
2018-11-02T22:39:43.519Z,10.10
2018-11-02T22:42:12.204Z,10.10
2018-11-02T22:44:40.769Z,10.10
2018-11-02T22:47:09.955Z,10.10
2018-11-02T22:49:38.653Z,10.10
2018-11-02T22:52:07.480Z,10.20
2018-11-02T22:54:36.118Z,10.20
2018-11-02T22:57:04.808Z,10.20
2018-11-02T22:59:33.591Z,10.20
2018-11-02T23:02:02.237Z,10.30
2018-11-02T23:04:30.757Z,10.20
2018-11-02T23:07:00.134Z,10.20
2018-11-02T23:09:28.709Z,10.30
2018-11-02T23:11:57.422Z,10.20
2018-11-02T23:14:26.029Z,10.20
2018-11-02T23:16:54.722Z,10.20
2018-11-02T23:19:23.484Z,10.20
2018-11-02T23:21:52.032Z,10.20
2018-11-02T23:24:20.607Z,10.30
2018-11-02T23:26:49.369Z,10.30
2018-11-02T23:29:18.117Z,10.30
2018-11-02T23:31:46.911Z,10.30
2018-11-02T23:34:15.523Z,10.30
2018-11-02T23:36:44.137Z,10.30
2018-11-02T23:39:12.879Z,10.30
2018-11-02T23:41:41.681Z,10.30
2018-11-02T23:44:10.246Z,10.30
2018-11-02T23:46:38.805Z,10.30
2018-11-02T23:49:07.623Z,10.30
2018-11-02T23:51:36.181Z,10.30
2018-11-02T23:54:06.331Z,10.30
2018-11-02T23:56:34.972Z,10.20
2018-11-02T23:59:03.524Z,10.20
